createdAt,value
2018-06-15T00:00:51.996Z,6.10
2018-06-15T00:03:19.635Z,4.77
2018-06-15T00:05:47.508Z,7.27
2018-06-15T00:08:15.322Z,5.63
2018-06-15T00:10:43.203Z,5.30
2018-06-15T00:13:10.981Z,5.87
2018-06-15T00:15:38.785Z,5.70
2018-06-15T00:18:06.621Z,5.40
2018-06-15T00:20:45.551Z,5.80
2018-06-15T00:23:13.415Z,6.17
2018-06-15T00:25:41.176Z,5.47
2018-06-15T00:28:09.083Z,5.83
2018-06-15T00:30:57.071Z,5.37
2018-06-15T00:33:24.904Z,5.40
2018-06-15T00:35:52.724Z,5.37
2018-06-15T00:38:20.660Z,5.37
2018-06-15T00:40:48.584Z,5.10
2018-06-15T00:43:16.323Z,4.90
2018-06-15T00:45:44.127Z,6.40
2018-06-15T00:48:12.019Z,5.20
2018-06-15T00:50:39.918Z,5.37
2018-06-15T00:53:07.648Z,5.40
2018-06-15T00:55:35.601Z,5.60
2018-06-15T00:58:03.671Z,4.90
2018-06-15T01:00:31.465Z,5.87
2018-06-15T01:02:59.292Z,7.57
2018-06-15T01:05:26.951Z,5.47
2018-06-15T01:07:54.800Z,5.13
2018-06-15T01:10:22.681Z,4.70
2018-06-15T01:12:50.569Z,4.43
2018-06-15T01:15:18.512Z,6.53
2018-06-15T01:17:46.304Z,4.90
2018-06-15T01:20:14.251Z,5.50
2018-06-15T01:22:42.150Z,5.47
2018-06-15T01:25:09.972Z,5.40
2018-06-15T01:27:37.744Z,6.33
2018-06-15T01:30:05.974Z,5.80
2018-06-15T01:32:33.824Z,5.80
2018-06-15T01:35:01.668Z,5.50
2018-06-15T01:37:29.405Z,5.63
2018-06-15T01:39:57.213Z,5.20
2018-06-15T01:42:25.006Z,5.30
2018-06-15T01:44:52.802Z,5.00
2018-06-15T01:47:20.574Z,5.40
2018-06-15T01:49:48.465Z,5.60
2018-06-15T01:52:16.279Z,5.50
2018-06-15T01:54:44.101Z,5.97
2018-06-15T01:57:11.954Z,6.13
2018-06-15T01:59:39.669Z,6.17
2018-06-15T02:02:08.374Z,5.63
2018-06-15T02:04:36.085Z,6.40
2018-06-15T02:07:03.956Z,5.77
2018-06-15T02:09:31.736Z,5.47
2018-06-15T02:11:59.485Z,5.67
2018-06-15T02:14:27.286Z,5.27
2018-06-15T02:16:55.138Z,5.30
2018-06-15T02:19:23.386Z,5.20
2018-06-15T02:21:51.246Z,4.83
2018-06-15T02:24:18.965Z,5.27
2018-06-15T02:26:46.829Z,6.33
2018-06-15T02:29:14.602Z,6.07
2018-06-15T02:31:42.455Z,5.83
2018-06-15T02:34:10.212Z,5.73
2018-06-15T02:36:38.012Z,5.57
2018-06-15T02:39:07.374Z,5.70
2018-06-15T02:41:35.209Z,5.83
2018-06-15T02:44:02.970Z,5.73
2018-06-15T02:46:30.792Z,5.30
2018-06-15T02:48:58.539Z,6.00
2018-06-15T02:51:26.431Z,6.30
2018-06-15T02:53:56.732Z,6.40
2018-06-15T02:56:24.634Z,6.00
2018-06-15T02:58:52.393Z,6.30
2018-06-15T03:01:20.231Z,5.87
2018-06-15T03:03:48.106Z,5.43
2018-06-15T03:06:16.038Z,5.70
2018-06-15T03:08:43.793Z,5.30
2018-06-15T03:11:11.716Z,6.23
2018-06-15T03:13:39.548Z,5.97
2018-06-15T03:16:07.388Z,5.77
2018-06-15T03:18:35.293Z,6.37
2018-06-15T03:21:03.140Z,5.63
2018-06-15T03:23:31.005Z,5.70
2018-06-15T03:25:59.178Z,5.70
2018-06-15T03:28:27.090Z,5.30
2018-06-15T03:30:54.986Z,5.60
2018-06-15T03:33:22.837Z,5.80
2018-06-15T03:35:50.607Z,5.97
2018-06-15T03:38:18.477Z,5.63
2018-06-15T03:40:46.210Z,5.60
2018-06-15T03:43:13.898Z,6.10
2018-06-15T03:45:41.790Z,5.97
2018-06-15T03:48:09.623Z,5.20
2018-06-15T03:50:37.476Z,5.80
2018-06-15T03:53:05.373Z,5.93
2018-06-15T03:55:33.273Z,5.73
2018-06-15T03:58:00.986Z,5.40
2018-06-15T04:00:28.829Z,5.87
2018-06-15T04:02:56.532Z,5.20
2018-06-15T04:05:24.420Z,5.90
2018-06-15T04:07:53.230Z,5.70
2018-06-15T04:10:21.566Z,5.07
2018-06-15T04:12:49.529Z,5.77
2018-06-15T04:15:17.355Z,5.70
2018-06-15T04:17:49.003Z,5.47
2018-06-15T04:20:16.900Z,5.53
2018-06-15T04:22:44.764Z,5.40
2018-06-15T04:25:12.717Z,5.80
2018-06-15T04:27:40.572Z,5.70
2018-06-15T04:30:08.382Z,5.50
2018-06-15T04:32:36.199Z,5.47
2018-06-15T04:35:04.071Z,4.57
2018-06-15T04:37:31.984Z,5.00
2018-06-15T04:39:59.825Z,5.33
2018-06-15T04:42:27.802Z,4.90
2018-06-15T04:44:55.845Z,5.50
2018-06-15T04:47:23.741Z,5.10
2018-06-15T04:49:51.532Z,5.10
2018-06-15T04:52:19.445Z,4.67
2018-06-15T04:54:47.594Z,5.10
2018-06-15T04:57:15.304Z,5.40
2018-06-15T04:59:43.033Z,5.17
2018-06-15T05:02:10.807Z,5.27
2018-06-15T05:04:38.522Z,4.60
2018-06-15T05:07:06.309Z,5.23
2018-06-15T05:09:34.245Z,6.13
2018-06-15T05:12:02.094Z,5.00
2018-06-15T05:14:29.951Z,5.43
2018-06-15T05:16:57.870Z,5.83
2018-06-15T05:19:25.506Z,5.37
2018-06-15T05:21:53.264Z,5.47
2018-06-15T05:24:21.149Z,5.80
2018-06-15T05:26:49.027Z,4.73
2018-06-15T05:29:17.191Z,7.90
2018-06-15T05:31:45.018Z,5.67
2018-06-15T05:34:12.816Z,5.77
2018-06-15T05:36:40.574Z,5.57
2018-06-15T05:39:09.756Z,5.37
2018-06-15T05:41:37.608Z,5.20
2018-06-15T05:44:05.470Z,5.47
2018-06-15T05:46:33.446Z,5.33
2018-06-15T05:49:01.304Z,5.20
2018-06-15T05:51:29.258Z,6.67
2018-06-15T05:53:57.122Z,5.97
2018-06-15T05:56:25.077Z,6.10
2018-06-15T05:58:53.002Z,8.30
2018-06-15T06:01:20.900Z,6.50
2018-06-15T06:03:48.756Z,7.27
2018-06-15T06:06:16.462Z,7.40
2018-06-15T06:08:44.300Z,7.77
2018-06-15T06:11:12.052Z,8.00
2018-06-15T06:13:39.826Z,6.53
2018-06-15T06:16:07.649Z,7.73
2018-06-15T06:18:35.658Z,7.37
2018-06-15T06:21:03.418Z,6.20
2018-06-15T06:23:31.666Z,6.90
2018-06-15T06:25:59.573Z,7.30
2018-06-15T06:28:27.474Z,7.13
2018-06-15T06:30:56.314Z,7.40
2018-06-15T06:33:24.245Z,7.47
2018-06-15T06:35:52.146Z,7.10
2018-06-15T06:38:19.990Z,7.60
2018-06-15T06:40:47.780Z,8.07
2018-06-15T06:43:15.615Z,7.67
2018-06-15T06:45:43.397Z,8.13
2018-06-15T06:48:11.502Z,9.00
2018-06-15T06:50:39.516Z,8.43
2018-06-15T06:53:07.284Z,8.87
2018-06-15T06:55:35.276Z,10.20
2018-06-15T06:58:03.226Z,9.60
2018-06-15T07:00:31.230Z,9.40
2018-06-15T07:02:59.191Z,9.57
2018-06-15T07:05:27.139Z,9.27
2018-06-15T07:07:55.191Z,11.20
2018-06-15T07:10:23.502Z,14.40
2018-06-15T07:12:51.874Z,17.50
2018-06-15T07:15:20.108Z,16.93
2018-06-15T07:17:48.000Z,11.10
2018-06-15T07:20:15.911Z,10.80
2018-06-15T07:22:43.914Z,11.07
2018-06-15T07:25:11.909Z,10.30
2018-06-15T07:27:39.783Z,11.43
2018-06-15T07:30:07.808Z,11.37
2018-06-15T07:32:35.796Z,12.40
2018-06-15T07:35:04.676Z,10.63
2018-06-15T07:37:32.605Z,14.50
2018-06-15T07:40:00.510Z,10.47
2018-06-15T07:42:28.619Z,10.57
2018-06-15T07:44:56.941Z,19.13
2018-06-15T07:47:25.774Z,13.93
2018-06-15T07:49:54.453Z,11.43
2018-06-15T07:52:22.731Z,10.83
2018-06-15T07:54:50.743Z,16.00
2018-06-15T07:57:18.700Z,15.37
2018-06-15T07:59:46.537Z,11.73
2018-06-15T08:02:14.507Z,12.00
2018-06-15T08:04:43.407Z,10.47
2018-06-15T08:07:11.387Z,12.93
2018-06-15T08:09:42.457Z,14.80
2018-06-15T08:12:10.334Z,10.97
2018-06-15T08:14:38.345Z,9.77
2018-06-15T08:17:06.332Z,14.77
2018-06-15T08:19:34.278Z,10.73
2018-06-15T08:22:02.273Z,10.13
2018-06-15T08:24:32.535Z,11.27
2018-06-15T08:27:00.548Z,13.33
2018-06-15T08:29:28.596Z,12.60
2018-06-15T08:31:56.743Z,8.70
2018-06-15T08:34:25.607Z,12.67
2018-06-15T08:36:53.964Z,19.90
2018-06-15T08:39:22.032Z,8.13
2018-06-15T08:41:49.918Z,9.20
2018-06-15T08:44:17.734Z,8.53
2018-06-15T08:46:45.609Z,8.50
2018-06-15T08:49:14.570Z,10.60
2018-06-15T08:51:42.465Z,9.23
2018-06-15T08:54:10.437Z,8.47
2018-06-15T08:56:50.326Z,15.80
2018-06-15T08:59:18.692Z,13.63
2018-06-15T09:01:46.649Z,10.30
2018-06-15T09:04:14.472Z,8.40
2018-06-15T09:06:42.319Z,7.50
2018-06-15T09:09:10.261Z,9.60
2018-06-15T09:11:38.029Z,7.20
2018-06-15T09:14:05.882Z,7.33
2018-06-15T09:16:33.836Z,7.20
2018-06-15T09:19:02.325Z,7.57
2018-06-15T09:21:30.024Z,6.30
2018-06-15T09:23:58.200Z,9.90
2018-06-15T09:26:27.485Z,12.20
2018-06-15T09:28:55.664Z,23.97
2018-06-15T09:31:24.717Z,12.87
2018-06-15T09:33:54.822Z,6.90
2018-06-15T09:36:23.481Z,7.13
2018-06-15T09:38:51.571Z,7.73
2018-06-15T09:41:19.585Z,9.00
2018-06-15T09:43:53.415Z,9.13
2018-06-15T09:46:22.529Z,6.03
2018-06-15T09:49:08.589Z,5.87
2018-06-15T09:51:36.469Z,10.23
2018-06-15T09:54:04.356Z,8.53
2018-06-15T09:56:32.236Z,5.90
2018-06-15T09:59:10.763Z,5.37
2018-06-15T10:01:38.834Z,6.00
2018-06-15T10:04:06.602Z,6.17
2018-06-15T10:06:38.160Z,5.87
2018-06-15T10:09:06.710Z,13.43
2018-06-15T10:11:34.601Z,8.17
2018-06-15T10:14:02.488Z,6.43
2018-06-15T10:16:30.509Z,12.30
2018-06-15T10:18:58.379Z,7.20
2018-06-15T10:21:26.962Z,5.93
2018-06-15T10:23:55.841Z,6.17
2018-06-15T10:26:24.412Z,7.70
2018-06-15T10:29:05.841Z,5.60
2018-06-15T10:31:33.888Z,17.57
2018-06-15T10:34:04.491Z,7.20
2018-06-15T10:36:33.573Z,6.40
2018-06-15T10:39:01.671Z,8.17
2018-06-15T10:41:29.741Z,18.23
2018-06-15T10:43:57.693Z,25.20
2018-06-15T10:46:25.795Z,6.90
2018-06-15T10:48:53.929Z,11.40
2018-06-15T10:51:21.956Z,10.07
2018-06-15T10:53:49.792Z,8.30
2018-06-15T10:56:17.748Z,18.33
2018-06-15T10:58:46.072Z,13.57
2018-06-15T11:01:14.301Z,6.90
2018-06-15T11:03:42.312Z,7.43
2018-06-15T11:06:10.152Z,12.17
2018-06-15T11:08:38.346Z,7.77
2018-06-15T11:11:06.394Z,7.33
2018-06-15T11:13:34.750Z,7.20
2018-06-15T11:16:06.717Z,17.70
2018-06-15T11:18:34.932Z,10.87
2018-06-15T11:21:02.880Z,11.90
2018-06-15T11:23:33.638Z,6.33
2018-06-15T11:26:01.628Z,18.43
2018-06-15T11:28:29.755Z,7.90
2018-06-15T11:30:57.758Z,7.97
2018-06-15T11:33:25.798Z,5.80
2018-06-15T11:35:53.963Z,8.70
2018-06-15T11:38:21.967Z,10.60
2018-06-15T11:40:49.974Z,6.93
2018-06-15T11:43:17.913Z,6.87
2018-06-15T11:45:46.183Z,7.50
2018-06-15T11:48:13.943Z,14.20
2018-06-15T11:50:42.418Z,7.57
2018-06-15T11:53:10.390Z,6.23
2018-06-15T11:55:38.366Z,7.77
2018-06-15T11:58:06.382Z,9.97
2018-06-15T12:00:34.497Z,7.37
2018-06-15T12:03:02.423Z,6.80
2018-06-15T12:05:30.286Z,7.17
2018-06-15T12:07:58.146Z,8.00
2018-06-15T12:10:26.236Z,8.67
2018-06-15T12:12:54.934Z,9.33
2018-06-15T12:15:23.342Z,13.40
2018-06-15T12:17:51.870Z,7.23
2018-06-15T12:20:19.717Z,10.40
2018-06-15T12:22:47.529Z,12.83
2018-06-15T12:25:15.340Z,5.53
2018-06-15T12:27:43.213Z,7.83
2018-06-15T12:30:10.979Z,6.40
2018-06-15T12:32:38.907Z,6.07
2018-06-15T12:35:06.724Z,5.97
2018-06-15T12:37:34.583Z,6.23
2018-06-15T12:40:02.519Z,5.53
2018-06-15T12:42:30.485Z,5.63
2018-06-15T12:44:58.325Z,5.33
2018-06-15T12:47:26.140Z,5.67
2018-06-15T12:49:53.976Z,6.70
2018-06-15T12:52:21.778Z,5.37
2018-06-15T12:54:49.669Z,6.47
2018-06-15T12:57:17.536Z,4.77
2018-06-15T12:59:45.691Z,5.90
2018-06-15T13:02:13.783Z,5.43
2018-06-15T13:04:41.637Z,5.97
2018-06-15T13:07:09.724Z,5.37
2018-06-15T13:09:37.565Z,7.90
2018-06-15T13:12:05.489Z,5.47
2018-06-15T13:14:33.334Z,5.47
2018-06-15T13:17:03.045Z,8.40
2018-06-15T13:19:31.032Z,8.93
2018-06-15T13:21:58.954Z,6.20
2018-06-15T13:24:31.510Z,4.43
2018-06-15T13:26:59.717Z,5.00
2018-06-15T13:29:27.868Z,7.03
2018-06-15T13:31:55.989Z,17.80
2018-06-15T13:34:24.227Z,8.27
2018-06-15T13:36:52.360Z,4.17
2018-06-15T13:39:21.264Z,3.97
2018-06-15T13:41:49.094Z,5.70
2018-06-15T13:44:17.009Z,4.47
2018-06-15T13:46:45.096Z,4.70
2018-06-15T13:49:12.900Z,4.03
2018-06-15T13:51:40.813Z,5.33
2018-06-15T13:54:08.825Z,4.60
2018-06-15T13:56:36.916Z,5.73
2018-06-15T13:59:05.098Z,5.20
2018-06-15T14:01:33.081Z,9.50
2018-06-15T14:04:01.014Z,5.93
2018-06-15T14:06:29.104Z,6.17
2018-06-15T14:08:57.768Z,6.07
2018-06-15T14:11:25.616Z,8.80
2018-06-15T14:13:54.013Z,5.60
2018-06-15T14:16:21.899Z,5.30
2018-06-15T14:18:49.951Z,5.20
2018-06-15T14:21:17.820Z,6.23
2018-06-15T14:23:45.696Z,7.07
2018-06-15T14:26:13.680Z,6.70
2018-06-15T14:28:41.813Z,5.07
2018-06-15T14:31:09.598Z,6.17
2018-06-15T14:33:37.790Z,6.23
2018-06-15T14:36:05.582Z,6.20
2018-06-15T14:38:33.621Z,4.90
2018-06-15T14:41:01.560Z,5.43
2018-06-15T14:46:23.324Z,4.63
2018-06-15T14:48:51.238Z,5.50
2018-06-15T14:51:19.573Z,5.07
2018-06-15T14:53:47.296Z,7.00
2018-06-15T14:56:15.304Z,4.77
2018-06-15T14:58:43.441Z,5.07
2018-06-15T15:01:11.313Z,5.33
2018-06-15T15:03:39.091Z,4.50
2018-06-15T15:06:07.200Z,4.27
2018-06-15T15:08:35.110Z,5.83
2018-06-15T15:11:02.982Z,4.07
2018-06-15T15:13:30.828Z,4.70
2018-06-15T15:15:58.945Z,4.53
2018-06-15T15:18:26.788Z,4.80
2018-06-15T15:20:54.733Z,9.10
2018-06-15T15:23:23.370Z,4.60
2018-06-15T15:25:51.334Z,4.50
2018-06-15T15:28:19.353Z,4.20
2018-06-15T15:30:47.190Z,4.20
2018-06-15T15:33:15.185Z,5.77
2018-06-15T15:35:43.002Z,4.97
2018-06-15T15:38:10.986Z,3.90
2018-06-15T15:40:38.852Z,4.30
2018-06-15T15:43:06.785Z,4.87
2018-06-15T15:45:34.547Z,4.10
2018-06-15T15:48:02.549Z,4.87
2018-06-15T15:50:30.541Z,4.67
2018-06-15T15:52:58.510Z,4.97
2018-06-15T15:55:26.378Z,4.80
2018-06-15T15:57:54.494Z,4.40
2018-06-15T16:00:23.027Z,5.00
2018-06-15T16:02:51.013Z,4.17
2018-06-15T16:05:18.877Z,5.03
2018-06-15T16:07:46.772Z,4.67
2018-06-15T16:10:15.105Z,4.40
2018-06-15T16:12:42.971Z,4.43
2018-06-15T16:15:10.879Z,4.70
2018-06-15T16:17:38.871Z,4.57
2018-06-15T16:20:06.828Z,5.10
2018-06-15T16:22:34.625Z,5.20
2018-06-15T16:25:02.370Z,4.87
2018-06-15T16:27:30.438Z,4.80
2018-06-15T16:29:58.328Z,4.67
2018-06-15T16:32:26.219Z,5.93
2018-06-15T16:34:58.131Z,5.03
2018-06-15T16:37:26.052Z,7.93
2018-06-15T16:39:54.249Z,6.00
2018-06-15T16:42:22.195Z,4.93
2018-06-15T16:44:50.181Z,5.20
2018-06-15T16:47:18.071Z,5.90
2018-06-15T16:49:45.884Z,5.67
2018-06-15T16:52:13.719Z,6.53
2018-06-15T16:54:42.030Z,5.93
2018-06-15T16:57:09.923Z,5.10
2018-06-15T16:59:37.686Z,6.13
2018-06-15T17:02:06.600Z,7.17
2018-06-15T17:04:34.641Z,5.30
2018-06-15T17:07:02.462Z,5.20
2018-06-15T17:09:30.324Z,9.43
2018-06-15T17:11:58.243Z,7.57
2018-06-15T17:14:26.158Z,5.70
2018-06-15T17:16:54.561Z,6.40
2018-06-15T17:19:22.720Z,7.37
2018-06-15T17:21:50.469Z,5.20
2018-06-15T17:24:18.213Z,9.47
2018-06-15T17:26:45.961Z,8.43
2018-06-15T17:29:13.849Z,6.83
2018-06-15T17:31:41.702Z,7.43
2018-06-15T17:34:09.612Z,10.70
2018-06-15T17:36:41.862Z,9.17
2018-06-15T17:39:09.633Z,6.70
2018-06-15T17:41:37.371Z,6.47
2018-06-15T17:44:07.282Z,6.27
2018-06-15T17:46:35.877Z,7.40
2018-06-15T17:49:04.136Z,7.17
2018-06-15T17:51:31.976Z,9.00
2018-06-15T17:53:59.787Z,6.07
2018-06-15T17:56:27.763Z,6.00
2018-06-15T17:58:55.748Z,5.57
2018-06-15T18:01:24.224Z,5.87
2018-06-15T18:03:52.431Z,8.40
2018-06-15T18:06:20.380Z,12.00
2018-06-15T18:08:48.400Z,5.87
2018-06-15T18:11:16.234Z,5.27
2018-06-15T18:13:44.086Z,10.83
2018-06-15T18:16:11.986Z,6.00
2018-06-15T18:18:39.853Z,7.77
2018-06-15T18:21:07.938Z,8.40
2018-06-15T18:23:35.685Z,13.23
2018-06-15T18:26:03.674Z,9.30
2018-06-15T18:28:31.999Z,7.00
2018-06-15T18:31:00.607Z,10.77
2018-06-15T18:33:28.649Z,7.80
2018-06-15T18:35:56.739Z,7.27
2018-06-15T18:38:25.019Z,8.53
2018-06-15T18:40:54.271Z,8.40
2018-06-15T18:43:24.003Z,12.90
2018-06-15T18:45:53.158Z,9.10
2018-06-15T18:48:25.282Z,8.07
2018-06-15T18:50:53.995Z,10.63
2018-06-15T18:53:22.030Z,8.93
2018-06-15T18:55:49.984Z,9.70
2018-06-15T18:58:17.982Z,8.60
2018-06-15T19:00:45.984Z,9.30
2018-06-15T19:03:14.104Z,9.17
2018-06-15T19:05:42.124Z,10.00
2018-06-15T19:08:09.924Z,10.40
2018-06-15T19:10:37.940Z,9.07
2018-06-15T19:13:06.144Z,9.17
2018-06-15T19:15:34.409Z,9.77
2018-06-15T19:18:02.581Z,10.53
2018-06-15T19:20:31.301Z,9.37
2018-06-15T19:22:59.955Z,8.27
2018-06-15T19:25:28.002Z,8.80
2018-06-15T19:27:56.040Z,8.10
2018-06-15T19:30:25.519Z,8.27
2018-06-15T19:32:53.922Z,7.60
2018-06-15T19:35:23.075Z,8.87
2018-06-15T19:37:51.604Z,9.70
2018-06-15T19:40:23.841Z,10.30
2018-06-15T19:42:52.350Z,9.43
2018-06-15T19:45:20.578Z,10.37
2018-06-15T19:47:48.716Z,9.53
2018-06-15T19:50:16.711Z,8.60
2018-06-15T19:52:45.941Z,8.37
2018-06-15T19:55:13.783Z,7.87
2018-06-15T19:57:41.736Z,8.77
2018-06-15T20:00:09.682Z,11.27
2018-06-15T20:02:37.605Z,9.60
2018-06-15T20:05:05.726Z,8.63
2018-06-15T20:07:33.849Z,9.17
2018-06-15T20:10:03.834Z,9.37
2018-06-15T20:12:31.725Z,9.93
2018-06-15T20:14:59.880Z,9.53
2018-06-15T20:17:27.710Z,9.83
2018-06-15T20:19:55.754Z,10.17
2018-06-15T20:22:24.405Z,9.83
2018-06-15T20:24:52.403Z,11.33
2018-06-15T20:27:20.404Z,11.37
2018-06-15T20:29:48.244Z,10.83
2018-06-15T20:32:16.236Z,9.60
2018-06-15T20:34:44.252Z,12.70
2018-06-15T20:37:12.910Z,10.70
2018-06-15T20:39:40.726Z,10.40
2018-06-15T20:42:08.669Z,10.63
2018-06-15T20:44:36.529Z,9.77
2018-06-15T20:47:04.356Z,10.53
2018-06-15T20:49:32.369Z,10.87
2018-06-15T20:52:00.316Z,11.10
2018-06-15T20:54:28.296Z,11.77
2018-06-15T20:56:56.450Z,12.97
2018-06-15T20:59:25.069Z,11.40
2018-06-15T21:01:54.503Z,12.67
2018-06-15T21:04:22.854Z,11.93
2018-06-15T21:06:50.811Z,11.43
2018-06-15T21:09:18.575Z,13.10
2018-06-15T21:11:46.533Z,14.20
2018-06-15T21:14:14.451Z,13.17
2018-06-15T21:16:42.292Z,13.67
2018-06-15T21:19:10.109Z,13.43
2018-06-15T21:21:37.863Z,13.90
2018-06-15T21:24:05.774Z,12.80
2018-06-15T21:26:33.730Z,13.73
2018-06-15T21:29:01.660Z,15.40
2018-06-15T21:31:29.600Z,14.00
2018-06-15T21:33:57.612Z,14.03
2018-06-15T21:36:25.844Z,14.17
2018-06-15T21:38:54.326Z,13.40
2018-06-15T21:41:22.448Z,12.57
2018-06-15T21:43:50.335Z,11.43
2018-06-15T21:46:18.153Z,12.53
2018-06-15T21:48:46.064Z,13.20
2018-06-15T21:51:13.860Z,12.13
2018-06-15T21:53:41.718Z,12.90
2018-06-15T21:56:09.716Z,13.40
2018-06-15T21:58:37.573Z,13.47
2018-06-15T22:01:05.400Z,12.83
2018-06-15T22:03:33.374Z,13.20
2018-06-15T22:06:01.185Z,12.00
2018-06-15T22:08:28.892Z,12.10
2018-06-15T22:10:56.771Z,12.13
2018-06-15T22:13:25.015Z,11.30
2018-06-15T22:15:53.184Z,11.63
2018-06-15T22:18:25.039Z,12.10
2018-06-15T22:20:53.110Z,12.20
2018-06-15T22:23:21.068Z,11.43
2018-06-15T22:25:48.908Z,10.53
2018-06-15T22:28:16.813Z,11.53
2018-06-15T22:30:44.682Z,12.70
2018-06-15T22:33:12.648Z,11.13
2018-06-15T22:35:40.450Z,11.00
2018-06-15T22:38:08.279Z,12.87
2018-06-15T22:40:36.140Z,11.40
2018-06-15T22:43:04.170Z,11.70
2018-06-15T22:45:31.956Z,12.30
2018-06-15T22:47:59.710Z,12.83
2018-06-15T22:50:27.559Z,12.67
2018-06-15T22:52:55.593Z,13.90
2018-06-15T22:55:23.367Z,12.57
2018-06-15T22:57:51.125Z,12.90
2018-06-15T23:00:23.835Z,13.33
2018-06-15T23:02:51.641Z,15.77
2018-06-15T23:05:19.489Z,15.83
2018-06-15T23:07:47.803Z,13.67
2018-06-15T23:10:15.652Z,14.33
2018-06-15T23:12:43.541Z,13.53
2018-06-15T23:15:11.790Z,13.23
2018-06-15T23:17:39.619Z,13.13
2018-06-15T23:20:07.731Z,13.73
2018-06-15T23:22:35.528Z,13.83
2018-06-15T23:25:03.474Z,15.53
2018-06-15T23:27:31.285Z,15.00
2018-06-15T23:29:59.173Z,15.90
2018-06-15T23:32:26.923Z,13.83
2018-06-15T23:34:54.751Z,15.43
2018-06-15T23:37:22.623Z,12.90
2018-06-15T23:39:53.489Z,12.53
2018-06-15T23:42:21.278Z,13.17
2018-06-15T23:44:48.979Z,13.83
2018-06-15T23:47:16.811Z,14.17
2018-06-15T23:49:44.502Z,13.97
2018-06-15T23:52:12.338Z,14.57
2018-06-15T23:54:40.344Z,14.10
2018-06-15T23:57:08.178Z,14.77
2018-06-15T23:59:35.990Z,14.60
